Time;durP1;ratioP1;P1;durP2;ratioP2;P2;SDS_P1;SDS_P2;PMS_P1;PMS_P2;Temp;Humidity;BMP_temperature;BMP_pressure;BME280_temperature;BME280_humidity;BME280_pressure;Samples;Min_cycle;Max_cycle;Signal;HPM_P1;HPM_P2
2024/03/16 00:01:26;;;;;;;9.48;4.38;;;;;;;8.95;100.00;100863.31;5043796;28;20025;-68
2024/03/16 00:03:53;;;;;;;10.95;6.00;;;;;;;8.94;100.00;100866.84;5040572;28;20029;-69
2024/03/16 00:06:19;;;;;;;14.30;6.03;;;;;;;8.92;100.00;100863.56;5042772;28;20036;-70
2024/03/16 00:08:45;;;;;;;11.10;6.10;;;;;;;8.91;100.00;100864.50;5042006;28;20437;-70
2024/03/16 00:11:12;;;;;;;11.18;5.93;;;;;;;8.93;100.00;100857.41;5042909;28;20064;-69
2024/03/16 00:13:39;;;;;;;9.75;5.43;;;;;;;9.04;100.00;100855.69;5045310;28;20032;-70
2024/03/16 00:16:05;;;;;;;9.63;4.78;;;;;;;9.11;100.00;100862.03;5050079;28;20043;-69
2024/03/16 00:18:36;;;;;;;11.23;4.97;;;;;;;9.11;100.00;100862.88;5050710;28;20025;-69
2024/03/16 00:21:02;;;;;;;8.65;4.18;;;;;;;9.13;100.00;100860.97;5045945;28;20029;-70
2024/03/16 00:23:29;;;;;;;7.97;3.15;;;;;;;9.14;100.00;100856.59;5049161;28;20071;-70
2024/03/16 00:25:56;;;;;;;8.07;3.78;;;;;;;9.13;100.00;100863.56;5048822;28;20573;-70
2024/03/16 00:28:22;;;;;;;7.05;3.45;;;;;;;9.10;100.00;100858.63;5048928;28;20376;-69
2024/03/16 00:30:48;;;;;;;8.32;4.30;;;;;;;9.09;100.00;100859.56;5048562;28;20044;-68
2024/03/16 00:33:15;;;;;;;7.05;3.72;;;;;;;9.11;100.00;100860.28;5044093;28;20048;-69
2024/03/16 00:35:42;;;;;;;6.20;3.60;;;;;;;9.13;100.00;100865.34;5045426;28;20029;-70
2024/03/16 00:38:09;;;;;;;15.25;4.47;;;;;;;9.16;100.00;100865.09;5050053;28;20143;-70
2024/03/16 00:40:36;;;;;;;10.15;4.05;;;;;;;9.11;100.00;100856.84;5048787;28;20116;-70
2024/03/16 00:43:02;;;;;;;7.53;3.83;;;;;;;9.12;100.00;100853.28;5041952;28;20719;-69
2024/03/16 00:45:28;;;;;;;11.18;4.45;;;;;;;9.14;100.00;100851.41;5046154;28;20035;-70
2024/03/16 00:47:56;;;;;;;11.40;5.25;;;;;;;9.18;100.00;100845.00;5045387;28;20040;-69
2024/03/16 00:50:22;;;;;;;6.45;3.67;;;;;;;9.25;100.00;100848.75;5051401;28;20037;-69
2024/03/16 00:52:48;;;;;;;12.32;5.10;;;;;;;9.25;100.00;100848.75;5043310;28;20082;-69
2024/03/16 00:55:14;;;;;;;10.43;4.35;;;;;;;9.23;100.00;100842.84;5049217;28;20086;-70
2024/03/16 00:57:39;;;;;;;7.85;4.07;;;;;;;9.18;100.00;100848.41;5045999;28;20036;-70
2024/03/16 01:00:09;;;;;;;10.07;4.90;;;;;;;9.09;100.00;100845.75;5045073;28;20044;-69
2024/03/16 01:02:35;;;;;;;16.33;5.50;;;;;;;9.06;100.00;100841.63;5044766;28;20464;-69
2024/03/16 01:05:01;;;;;;;10.63;5.35;;;;;;;9.04;100.00;100845.28;5044619;28;20032;-69
2024/03/16 01:07:27;;;;;;;7.43;3.90;;;;;;;9.02;100.00;100839.41;5044731;28;20037;-70
2024/03/16 01:09:54;;;;;;;9.95;4.97;;;;;;;8.98;100.00;100842.25;5046521;28;20045;-70
2024/03/16 01:12:20;;;;;;;11.35;4.43;;;;;;;8.95;100.00;100841.69;5045672;28;20087;-69
2024/03/16 01:14:47;;;;;;;11.27;5.32;;;;;;;8.92;100.00;100839.34;5046211;28;20033;-69
2024/03/16 01:17:12;;;;;;;11.07;5.63;;;;;;;8.93;100.00;100828.81;5045580;28;20077;-70
2024/03/16 01:19:41;;;;;;;13.38;4.70;;;;;;;8.91;100.00;100841.13;5046787;28;20532;-70
2024/03/16 01:22:07;;;;;;;8.95;4.22;;;;;;;8.86;100.00;100843.25;5049397;28;20060;-69
2024/03/16 01:24:33;;;;;;;7.97;3.35;;;;;;;8.80;100.00;100843.75;5046108;28;20071;-69
2024/03/16 01:26:59;;;;;;;6.35;3.45;;;;;;;8.77;100.00;100838.81;5046983;28;20037;-70
2024/03/16 01:29:25;;;;;;;6.63;3.45;;;;;;;8.77;100.00;100837.97;5049175;28;20032;-70
2024/03/16 01:31:51;;;;;;;7.85;4.15;;;;;;;8.76;100.00;100841.53;5048572;28;20037;-69
2024/03/16 01:34:17;;;;;;;4.07;2.50;;;;;;;8.80;100.00;100848.94;5043636;28;20033;-69
2024/03/16 01:36:43;;;;;;;7.82;3.28;;;;;;;8.89;100.00;100848.22;5046632;28;20396;-70
2024/03/16 01:39:12;;;;;;;7.25;2.95;;;;;;;8.92;100.00;100840.16;5045454;28;20035;-69
2024/03/16 01:41:38;;;;;;;5.88;2.63;;;;;;;8.96;100.00;100844.19;5043358;28;20083;-70
2024/03/16 01:44:11;;;;;;;9.23;3.20;;;;;;;8.95;100.00;100846.91;5046480;28;20111;-69
2024/03/16 01:46:41;;;;;;;7.93;2.85;;;;;;;8.97;100.00;100851.03;5043574;28;20028;-70
2024/03/16 01:49:08;;;;;;;9.73;3.35;;;;;;;9.00;100.00;100844.72;5045878;28;20029;-70
2024/03/16 01:51:36;;;;;;;7.22;3.83;;;;;;;8.98;100.00;100846.63;5041729;28;20036;-70
2024/03/16 01:54:02;;;;;;;10.23;3.75;;;;;;;9.05;100.00;100847.78;5045880;28;20056;-69
2024/03/16 01:56:28;;;;;;;12.88;3.65;;;;;;;9.11;100.00;100844.66;5041379;28;20040;-70
2024/03/16 01:58:53;;;;;;;11.38;3.42;;;;;;;9.15;100.00;100842.66;5043993;28;20028;-69
2024/03/16 02:01:18;;;;;;;4.80;2.30;;;;;;;9.15;100.00;100846.06;5047441;28;20037;-69
2024/03/16 02:03:46;;;;;;;7.93;2.75;;;;;;;9.14;100.00;100846.19;5049707;28;20029;-70
2024/03/16 02:06:12;;;;;;;6.68;2.63;;;;;;;9.15;100.00;100845.25;5042877;28;20112;-70
2024/03/16 02:08:38;;;;;;;5.78;2.95;;;;;;;9.14;100.00;100844.41;5042498;28;20034;-70
2024/03/16 02:11:04;;;;;;;8.60;3.15;;;;;;;9.16;100.00;100839.09;5047730;28;20048;-69
2024/03/16 02:13:30;;;;;;;7.13;3.03;;;;;;;9.24;100.00;100842.72;5047273;28;20058;-69
2024/03/16 02:15:55;;;;;;;6.53;3.53;;;;;;;9.26;100.00;100834.78;5045887;28;20366;-69
2024/03/16 02:18:21;;;;;;;10.30;3.70;;;;;;;9.28;100.00;100841.53;5048374;28;20028;-69
2024/03/16 02:20:46;;;;;;;5.22;3.05;;;;;;;9.27;100.00;100833.84;5044946;28;20511;-70
2024/03/16 02:23:12;;;;;;;9.50;3.50;;;;;;;9.27;100.00;100836.44;5045416;28;20086;-70
2024/03/16 02:25:37;;;;;;;10.38;3.45;;;;;;;9.29;100.00;100839.75;5037775;28;20031;-70
2024/03/16 02:28:03;;;;;;;8.35;3.42;;;;;;;9.32;100.00;100845.50;5050785;28;20029;-70
2024/03/16 02:30:28;;;;;;;9.25;3.35;;;;;;;9.35;100.00;100836.63;5046354;28;20412;-70
2024/03/16 02:32:54;;;;;;;6.40;3.13;;;;;;;9.35;100.00;100826.22;5045483;28;20030;-70
2024/03/16 02:35:19;;;;;;;8.35;2.75;;;;;;;9.32;100.00;100827.31;5044773;28;20120;-69
2024/03/16 02:37:45;;;;;;;5.25;2.80;;;;;;;9.29;100.00;100834.53;5047052;28;20116;-70
2024/03/16 02:40:11;;;;;;;4.88;2.90;;;;;;;9.23;100.00;100835.03;5044737;28;20029;-69
2024/03/16 02:42:39;;;;;;;7.82;2.50;;;;;;;9.19;100.00;100838.84;5045122;28;20027;-70
2024/03/16 02:45:05;;;;;;;6.25;2.63;;;;;;;9.19;100.00;100838.84;5046075;28;20029;-69
2024/03/16 02:47:31;;;;;;;5.95;2.85;;;;;;;9.16;100.00;100839.09;5048694;28;20032;-70
2024/03/16 02:49:57;;;;;;;6.82;3.13;;;;;;;9.15;100.00;100840.03;5047336;28;20024;-69
2024/03/16 02:52:23;;;;;;;10.20;3.25;;;;;;;9.08;100.00;100828.50;5045654;28;20132;-70
2024/03/16 02:54:48;;;;;;;8.50;3.45;;;;;;;9.05;100.00;100831.34;5044440;28;20048;-70
2024/03/16 02:57:14;;;;;;;6.25;3.22;;;;;;;9.02;100.00;100829.00;5044245;28;20061;-70
2024/03/16 02:59:40;;;;;;;7.82;3.30;;;;;;;8.98;100.00;100834.44;5045967;28;20484;-70
2024/03/16 03:02:05;;;;;;;5.65;3.28;;;;;;;8.93;100.00;100831.44;5043869;28;20021;-69
2024/03/16 03:04:31;;;;;;;7.07;3.25;;;;;;;8.86;100.00;100829.44;5045798;28;20072;-70
2024/03/16 03:06:56;;;;;;;4.75;2.45;;;;;;;8.76;100.00;100831.13;5047986;28;20140;-70
2024/03/16 03:09:22;;;;;;;4.85;2.88;;;;;;;8.66;100.00;100841.44;5047743;28;20078;-70
2024/03/16 03:11:48;;;;;;;5.85;2.30;;;;;;;8.55;100.00;100836.28;5046372;28;20029;-70
2024/03/16 03:14:15;;;;;;;5.00;2.05;;;;;;;8.51;100.00;100833.09;5046770;28;20037;-70
2024/03/16 03:16:40;;;;;;;5.65;2.97;;;;;;;8.55;100.00;100837.09;5043865;28;20047;-70
2024/03/16 03:19:06;;;;;;;7.65;2.80;;;;;;;8.57;100.00;100834.38;5045391;28;20025;-70
2024/03/16 03:21:31;;;;;;;7.28;3.53;;;;;;;8.58;100.00;100829.06;5043260;28;20025;-70
2024/03/16 03:23:59;;;;;;;6.30;3.25;;;;;;;8.61;100.00;100828.00;5047937;28;20541;-69
2024/03/16 03:26:25;;;;;;;7.53;3.63;;;;;;;8.65;100.00;100829.41;5049790;28;20039;-70
2024/03/16 03:28:50;;;;;;;6.50;3.53;;;;;;;8.70;100.00;100837.66;5045031;28;20036;-69
2024/03/16 03:31:16;;;;;;;7.22;3.42;;;;;;;8.72;100.00;100834.94;5048627;28;20423;-70
2024/03/16 03:33:41;;;;;;;8.60;3.30;;;;;;;8.71;100.00;100841.91;5046046;28;20120;-70
2024/03/16 03:36:07;;;;;;;8.38;3.60;;;;;;;8.74;100.00;100843.41;5045607;28;20062;-70
2024/03/16 03:38:32;;;;;;;5.88;3.45;;;;;;;8.85;100.00;100839.00;5044537;28;20029;-70
2024/03/16 03:40:58;;;;;;;9.63;3.63;;;;;;;8.93;100.00;100839.22;5049410;28;20392;-69
2024/03/16 03:43:24;;;;;;;11.63;3.88;;;;;;;8.96;100.00;100848.53;5043215;28;20032;-69
2024/03/16 03:45:53;;;;;;;5.78;2.85;;;;;;;8.95;100.00;100842.53;5036122;28;20033;-70
2024/03/16 03:50:52;;;;;;;6.35;3.38;;;;;;;8.90;100.00;100855.06;5050582;28;20128;-70
2024/03/16 03:53:19;;;;;;;6.85;3.42;;;;;;;8.89;100.00;100850.81;5041078;28;20037;-70
2024/03/16 03:55:45;;;;;;;7.15;3.65;;;;;;;8.89;100.00;100858.59;5044116;28;20437;-69
2024/03/16 03:58:11;;;;;;;6.35;3.35;;;;;;;8.91;100.00;100867.09;5041462;28;20037;-70
2024/03/16 04:00:37;;;;;;;9.13;3.63;;;;;;;8.89;100.00;100869.00;5040183;28;20036;-70
2024/03/16 04:03:06;;;;;;;9.45;4.15;;;;;;;8.92;100.00;100871.34;5039107;28;20060;-70
2024/03/16 04:05:31;;;;;;;11.52;3.50;;;;;;;8.92;100.00;100865.34;5045347;28;20400;-70
2024/03/16 04:07:57;;;;;;;6.65;3.55;;;;;;;8.98;100.00;100873.44;5044966;28;20025;-70
2024/03/16 04:10:22;;;;;;;5.45;2.47;;;;;;;8.98;100.00;100873.44;5055012;28;20400;-70
2024/03/16 04:12:48;;;;;;;5.30;2.65;;;;;;;9.01;100.00;100868.94;5050413;28;20488;-70
2024/03/16 04:15:14;;;;;;;6.28;3.42;;;;;;;9.01;100.00;100871.53;5048561;28;20041;-69
2024/03/16 04:17:39;;;;;;;5.95;3.08;;;;;;;9.05;100.00;100870.34;5050179;28;20029;-69
2024/03/16 04:20:12;;;;;;;8.43;3.90;;;;;;;9.06;100.00;100874.59;5048513;28;20036;-70
2024/03/16 04:22:41;;;;;;;8.55;2.95;;;;;;;9.08;100.00;100872.69;5046498;28;20039;-70
2024/03/16 04:25:09;;;;;;;5.43;3.25;;;;;;;9.02;100.00;100874.00;5045045;28;20033;-70
2024/03/16 04:27:40;;;;;;;11.63;3.15;;;;;;;9.04;100.00;100871.28;5045849;28;20064;-70
2024/03/16 04:30:07;;;;;;;7.53;2.70;;;;;;;9.10;100.00;100876.00;5043716;28;20029;-70
2024/03/16 04:32:33;;;;;;;5.45;2.50;;;;;;;9.14;100.00;100882.59;5029191;28;20049;-70
2024/03/16 04:34:59;;;;;;;10.00;2.90;;;;;;;9.17;100.00;100879.75;5023743;28;20033;-70
2024/03/16 04:37:25;;;;;;;5.03;2.80;;;;;;;9.18;100.00;100879.63;5029765;28;20035;-70
2024/03/16 04:39:50;;;;;;;7.53;3.22;;;;;;;9.19;100.00;100877.84;5030960;28;20030;-70
2024/03/16 04:42:15;;;;;;;6.00;3.03;;;;;;;9.18;100.00;100879.63;5029744;28;20214;-70
2024/03/16 04:44:41;;;;;;;5.85;3.17;;;;;;;9.19;100.00;100877.84;5025212;28;20026;-70
2024/03/16 04:47:06;;;;;;;6.15;2.83;;;;;;;9.17;100.00;100871.94;5028600;28;20508;-70
2024/03/16 04:49:32;;;;;;;8.68;3.42;;;;;;;9.17;100.00;100871.94;5026485;28;20116;-70
2024/03/16 04:51:58;;;;;;;5.90;3.28;;;;;;;9.15;100.00;100876.44;5028540;28;20084;-70
2024/03/16 04:54:23;;;;;;;5.93;3.20;;;;;;;9.15;100.00;100877.25;5024615;28;20033;-69
2024/03/16 04:56:49;;;;;;;13.32;4.03;;;;;;;9.10;100.00;100882.00;5019226;28;20361;-71
2024/03/16 04:59:15;;;;;;;7.38;4.40;;;;;;;9.08;100.00;100877.88;5025698;28;20045;-70
2024/03/16 05:01:41;;;;;;;9.60;4.93;;;;;;;9.13;100.00;100873.13;5028524;28;20045;-70
2024/03/16 05:04:07;;;;;;;8.10;4.25;;;;;;;9.19;100.00;100875.25;5027288;28;20029;-69
2024/03/16 05:06:36;;;;;;;8.13;4.53;;;;;;;9.23;100.00;100877.47;5016177;28;20041;-70
2024/03/16 05:09:06;;;;;;;8.02;4.57;;;;;;;9.27;100.00;100885.84;5020203;28;20041;-69
2024/03/16 05:11:37;;;;;;;7.97;4.07;;;;;;;9.28;100.00;100885.72;5026452;28;20083;-70
2024/03/16 05:14:06;;;;;;;6.03;4.10;;;;;;;9.27;100.00;100888.44;5018002;28;20452;-70
2024/03/16 05:16:35;;;;;;;10.10;4.63;;;;;;;9.25;100.00;100882.53;5018910;28;20130;-70
2024/03/16 05:19:04;;;;;;;9.73;3.60;;;;;;;9.22;100.00;100880.19;5022545;28;20069;-70
2024/03/16 05:21:33;;;;;;;11.52;5.15;;;;;;;9.19;100.00;100883.88;5030462;28;20040;-70
2024/03/16 05:24:02;;;;;;;14.48;4.55;;;;;;;9.19;100.00;100888.25;5030723;28;20041;-70
2024/03/16 05:26:30;;;;;;;6.70;3.75;;;;;;;9.19;100.00;100885.66;5028109;28;20087;-70
2024/03/16 05:28:56;;;;;;;8.40;3.88;;;;;;;9.20;100.00;100882.91;5033921;28;20499;-70
2024/03/16 05:31:22;;;;;;;6.68;4.03;;;;;;;9.20;100.00;100895.09;5031083;28;20049;-69
2024/03/16 05:33:49;;;;;;;6.45;3.20;;;;;;;9.20;100.00;100895.09;5030873;28;20035;-70
2024/03/16 05:36:14;;;;;;;6.78;4.20;;;;;;;9.19;100.00;100896.03;5029074;28;20049;-69
2024/03/16 05:38:43;;;;;;;7.13;3.78;;;;;;;9.20;100.00;100895.91;5031512;28;20033;-70
2024/03/16 05:41:09;;;;;;;7.60;3.78;;;;;;;9.22;100.00;100901.00;5030023;28;20026;-70
2024/03/16 05:43:35;;;;;;;8.23;4.30;;;;;;;9.22;100.00;100899.22;5034316;28;20107;-69
2024/03/16 05:46:00;;;;;;;5.68;3.42;;;;;;;9.23;100.00;100897.44;5032585;28;20034;-69
2024/03/16 05:48:26;;;;;;;7.78;3.95;;;;;;;9.24;100.00;100899.91;5034971;28;20068;-69
2024/03/16 05:50:53;;;;;;;9.27;3.60;;;;;;;9.26;100.00;100905.00;5030553;28;20025;-69
2024/03/16 05:53:19;;;;;;;10.05;4.47;;;;;;;9.28;100.00;100900.50;5029141;28;20033;-69
2024/03/16 05:55:45;;;;;;;9.88;3.65;;;;;;;9.28;100.00;100900.50;5023111;28;20393;-69
2024/03/16 05:58:10;;;;;;;9.52;4.60;;;;;;;9.28;100.00;100906.53;5019752;28;20037;-69
2024/03/16 06:00:37;;;;;;;5.05;3.08;;;;;;;9.32;100.00;100912.31;5020403;28;20036;-69
2024/03/16 06:03:06;;;;;;;5.63;2.70;;;;;;;9.33;100.00;100908.75;5019470;28;20522;-69
2024/03/16 06:05:38;;;;;;;9.55;4.47;;;;;;;9.35;100.00;100909.44;5026558;28;20562;-69
2024/03/16 06:08:05;;;;;;;7.70;3.35;;;;;;;9.36;100.00;100913.69;5024606;28;20075;-69
2024/03/16 06:10:31;;;;;;;9.10;3.72;;;;;;;9.40;100.00;100909.06;5024273;28;20051;-69
2024/03/16 06:12:57;;;;;;;9.57;3.53;;;;;;;9.45;100.00;100914.72;5028197;28;20071;-69
2024/03/16 06:15:22;;;;;;;8.88;3.85;;;;;;;9.46;100.00;100911.97;5020015;28;20065;-69
2024/03/16 06:17:49;;;;;;;7.03;3.92;;;;;;;9.46;100.00;100917.16;5026359;28;20076;-69
2024/03/16 06:20:15;;;;;;;11.20;3.78;;;;;;;9.49;100.00;100919.53;5022885;28;20037;-70
2024/03/16 06:22:41;;;;;;;8.27;3.22;;;;;;;9.56;100.00;100927.66;5027441;28;20040;-69
2024/03/16 06:25:08;;;;;;;7.93;3.55;;;;;;;9.63;100.00;100932.22;5027483;28;20033;-69
2024/03/16 06:27:40;;;;;;;10.35;4.07;;;;;;;9.69;100.00;100930.06;5026501;28;20106;-69
2024/03/16 06:30:07;;;;;;;10.48;4.53;;;;;;;9.75;100.00;100934.75;5027626;28;20398;-69
2024/03/16 06:32:38;;;;;;;7.38;4.13;;;;;;;9.84;100.00;100939.22;5042111;28;20448;-69
2024/03/16 06:35:04;;;;;;;8.45;3.58;;;;;;;9.90;100.00;100942.13;5047410;28;20036;-69
2024/03/16 06:37:30;;;;;;;7.80;4.50;;;;;;;9.97;100.00;100942.41;5050187;28;20032;-69
2024/03/16 06:39:55;;;;;;;10.38;5.57;;;;;;;9.97;100.00;100943.22;5048018;28;20029;-69
2024/03/16 06:42:20;;;;;;;9.60;5.43;;;;;;;9.96;100.00;100940.75;5041065;28;20525;-69
2024/03/16 06:44:46;;;;;;;17.13;6.90;;;;;;;9.99;100.00;100943.09;5048612;28;20032;-69
2024/03/16 06:47:11;;;;;;;17.80;6.57;;;;;;;10.07;100.00;100940.69;5045192;28;20033;-70
2024/03/16 06:49:37;;;;;;;21.70;7.93;;;;;;;10.19;100.00;100944.03;5044404;28;20144;-70
2024/03/16 06:52:02;;;;;;;18.15;7.72;;;;;;;10.29;100.00;100940.56;5040834;28;20036;-70
2024/03/16 06:54:28;;;;;;;19.35;8.23;;;;;;;10.43;100.00;100949.75;5046146;28;20426;-69
2024/03/16 06:56:53;;;;;;;29.45;8.05;;;;;;;10.61;100.00;100950.78;5041856;28;20473;-69
2024/03/16 06:59:18;;;;;;;14.70;7.75;;;;;;;10.86;100.00;100954.72;5041297;28;20044;-69
2024/03/16 07:01:44;;;;;;;15.27;8.00;;;;;;;10.96;100.00;100950.31;5043506;28;20040;-69
2024/03/16 07:04:09;;;;;;;17.23;8.75;;;;;;;10.85;100.00;100947.84;5044015;28;20033;-69
2024/03/16 07:06:35;;;;;;;18.20;8.57;;;;;;;10.85;100.00;100955.66;5046789;28;20044;-70
2024/03/16 07:09:08;;;;;;;25.85;9.13;;;;;;;10.84;100.00;100956.63;5044206;28;20036;-69
2024/03/16 07:11:33;;;;;;;18.05;8.90;;;;;;;10.85;100.00;100962.66;5046444;28;20116;-69
2024/03/16 07:13:59;;;;;;;18.85;7.30;;;;;;;10.91;100.00;100960.31;5045514;28;20484;-70
2024/03/16 07:16:25;;;;;;;21.55;8.57;;;;;;;11.04;100.00;100961.84;5046923;28;20044;-69
2024/03/16 07:18:50;;;;;;;12.65;6.55;;;;;;;11.10;100.00;100966.53;5047242;28;20037;-69
2024/03/16 07:21:19;;;;;;;16.77;8.45;;;;;;;11.11;100.00;100963.78;5043219;28;20041;-69
2024/03/16 07:23:46;;;;;;;18.60;7.43;;;;;;;11.23;100.00;100956.66;5046958;28;20032;-69
2024/03/16 07:26:12;;;;;;;14.57;6.20;;;;;;;11.30;100.00;100960.38;5040663;28;20033;-69
2024/03/16 07:28:38;;;;;;;14.55;7.03;;;;;;;11.40;99.54;100961.16;5043671;28;20451;-70
2024/03/16 07:31:04;;;;;;;17.58;6.75;;;;;;;11.47;94.79;100966.66;5042306;28;20076;-69
2024/03/16 07:33:30;;;;;;;11.23;5.85;;;;;;;11.61;100.00;100966.25;5045417;28;20523;-70
2024/03/16 07:35:55;;;;;;;15.90;6.82;;;;;;;11.69;100.00;100965.56;5039279;28;20025;-69
2024/03/16 07:38:21;;;;;;;16.63;6.95;;;;;;;11.80;97.89;100973.28;5042912;28;20047;-70
2024/03/16 07:40:46;;;;;;;15.40;7.25;;;;;;;11.92;97.68;100970.34;5045372;28;20033;-69
2024/03/16 07:43:13;;;;;;;13.48;6.07;;;;;;;11.94;96.44;100973.63;5046585;28;20121;-69
2024/03/16 07:45:42;;;;;;;16.15;5.88;;;;;;;11.97;94.99;100977.75;5040946;28;20048;-69
2024/03/16 07:48:08;;;;;;;12.25;6.57;;;;;;;12.06;96.62;100982.13;5047034;28;20036;-69
2024/03/16 07:50:35;;;;;;;13.65;4.78;;;;;;;12.21;95.81;100978.13;5043554;28;20485;-70
2024/03/16 07:53:00;;;;;;;14.05;5.63;;;;;;;12.45;97.01;100972.38;5046591;28;20075;-69
2024/03/16 07:55:27;;;;;;;11.90;6.25;;;;;;;12.60;96.41;100980.56;5044391;28;20060;-69
2024/03/16 07:57:52;;;;;;;14.02;6.72;;;;;;;12.89;96.73;100980.41;5047092;28;20035;-70
2024/03/16 08:00:18;;;;;;;16.25;5.97;;;;;;;13.27;96.26;100981.94;5043879;28;20487;-69
2024/03/16 08:02:43;;;;;;;16.67;6.45;;;;;;;13.51;96.20;100987.41;5045668;28;20452;-69
2024/03/16 08:05:11;;;;;;;15.52;6.18;;;;;;;13.63;95.84;100989.81;5043551;28;20112;-69
2024/03/16 08:07:40;;;;;;;14.05;6.43;;;;;;;13.61;95.43;100997.81;5044951;28;20029;-69
2024/03/16 08:10:07;;;;;;;18.75;7.05;;;;;;;13.59;95.45;100999.75;5044368;28;20131;-70
2024/03/16 08:12:32;;;;;;;14.00;7.22;;;;;;;13.48;96.07;100998.19;5028081;28;20033;-69
2024/03/16 08:14:58;;;;;;;14.52;7.10;;;;;;;13.26;96.55;100994.19;5044534;28;20166;-70
2024/03/16 08:17:23;;;;;;;18.35;7.30;;;;;;;13.17;97.80;100996.91;5044579;28;20396;-69
2024/03/16 08:19:48;;;;;;;12.27;6.18;;;;;;;13.15;97.47;101004.88;5045968;28;20059;-69
2024/03/16 08:22:14;;;;;;;14.02;6.32;;;;;;;13.04;96.50;100994.63;5043780;28;20033;-69
2024/03/16 08:24:39;;;;;;;19.08;6.97;;;;;;;13.05;97.83;101000.69;5044713;28;20030;-69
2024/03/16 08:27:05;;;;;;;17.33;7.28;;;;;;;12.96;96.83;101000.59;5046615;28;20037;-69
2024/03/16 08:29:30;;;;;;;15.15;6.70;;;;;;;12.88;96.51;101004.91;5045989;28;20033;-69
2024/03/16 08:31:56;;;;;;;10.32;5.50;;;;;;;12.82;97.96;101003.69;5044616;28;20195;-69
2024/03/16 08:34:21;;;;;;;19.63;5.82;;;;;;;12.82;98.25;101003.69;5045222;28;20087;-69
2024/03/16 08:36:47;;;;;;;17.05;5.63;;;;;;;12.72;95.42;101004.72;5049703;28;20025;-69
2024/03/16 08:39:12;;;;;;;16.13;5.88;;;;;;;12.89;98.01;101001.31;5046753;28;20131;-69
2024/03/16 08:41:38;;;;;;;13.02;6.18;;;;;;;12.95;97.10;101001.56;5052111;28;20029;-69
2024/03/16 08:44:04;;;;;;;11.18;5.32;;;;;;;12.87;91.81;101009.31;5045595;28;20036;-69
2024/03/16 08:46:30;;;;;;;11.23;6.07;;;;;;;13.07;96.14;101003.97;5049516;28;20025;-69
2024/03/16 08:48:55;;;;;;;13.55;6.25;;;;;;;13.25;96.29;101008.25;5047931;28;20069;-69
2024/03/16 08:51:21;;;;;;;11.45;6.03;;;;;;;13.48;96.24;101008.66;5047680;28;20496;-69
2024/03/16 08:53:46;;;;;;;18.60;6.55;;;;;;;13.39;88.21;101009.53;5047671;28;20089;-69
2024/03/16 08:56:12;;;;;;;14.80;6.05;;;;;;;13.26;89.53;101009.91;5045153;28;20366;-69
2024/03/16 08:58:37;;;;;;;14.90;6.78;;;;;;;13.28;91.15;101007.13;5048049;28;20029;-69
2024/03/16 09:01:02;;;;;;;10.40;5.75;;;;;;;13.39;92.29;101006.94;5047038;28;20032;-69
2024/03/16 09:03:28;;;;;;;14.40;6.10;;;;;;;13.50;91.08;101011.94;5048789;28;20488;-69
2024/03/16 09:05:53;;;;;;;10.50;5.60;;;;;;;13.57;92.25;101006.94;5048116;28;20039;-69
2024/03/16 09:08:19;;;;;;;15.25;6.38;;;;;;;13.60;94.42;101010.06;5048230;28;20512;-69
2024/03/16 09:10:44;;;;;;;13.05;6.32;;;;;;;13.68;94.84;101011.13;5050867;28;20029;-69
2024/03/16 09:13:10;;;;;;;13.55;6.25;;;;;;;13.74;94.77;101010.47;5047247;28;20562;-69
2024/03/16 09:15:35;;;;;;;16.30;6.68;;;;;;;13.92;95.17;101008.66;5047825;28;20557;-69
2024/03/16 09:18:02;;;;;;;10.98;5.88;;;;;;;14.09;94.63;101002.56;5048228;28;20033;-69
2024/03/16 09:20:28;;;;;;;13.10;6.53;;;;;;;14.33;93.96;101011.53;5046827;28;20460;-69
2024/03/16 09:22:56;;;;;;;16.52;7.68;;;;;;;14.45;93.32;101008.53;5048345;28;20032;-69
2024/03/16 09:25:21;;;;;;;14.60;7.43;;;;;;;14.43;92.89;101007.03;5049916;28;20032;-69
2024/03/16 09:27:46;;;;;;;16.88;8.25;;;;;;;14.48;93.41;101002.16;5050396;28;20380;-69
2024/03/16 09:30:14;;;;;;;15.38;8.27;;;;;;;14.41;88.70;101011.59;5047268;28;20098;-68
2024/03/16 09:32:39;;;;;;;14.18;7.78;;;;;;;14.06;91.27;100996.81;5049428;28;20228;-73
2024/03/16 09:35:07;;;;;;;23.20;8.38;;;;;;;13.96;92.97;101007.38;5049222;28;20037;-73
2024/03/16 09:37:32;;;;;;;17.70;8.20;;;;;;;14.07;93.80;100999.28;5047891;28;20029;-73
2024/03/16 09:39:58;;;;;;;18.30;8.18;;;;;;;14.25;93.43;101005.28;5049383;28;20452;-72
2024/03/16 09:42:23;;;;;;;18.17;9.18;;;;;;;14.31;93.10;101000.38;5047827;28;20025;-74
2024/03/16 09:44:49;;;;;;;16.10;7.15;;;;;;;14.27;93.41;101000.69;5068095;28;20041;-71
2024/03/16 09:47:16;;;;;;;16.10;7.05;;;;;;;14.28;93.34;100997.09;5044454;28;20167;-72
2024/03/16 09:49:42;;;;;;;11.65;6.68;;;;;;;14.20;92.07;100997.03;5048161;28;20389;-72
2024/03/16 09:52:13;;;;;;;13.68;7.10;;;;;;;14.25;91.59;101002.66;5049553;28;20033;-72
2024/03/16 09:54:40;;;;;;;14.68;6.15;;;;;;;14.39;92.00;101008.31;5049858;28;20032;-72
2024/03/16 09:57:14;;;;;;;13.93;6.45;;;;;;;14.53;91.63;101003.34;5043830;28;20021;-72
2024/03/16 09:59:47;;;;;;;12.43;6.10;;;;;;;14.65;91.84;101006.47;5046568;28;20036;-72
2024/03/16 10:02:19;;;;;;;17.20;8.00;;;;;;;14.59;91.34;101009.75;5043918;28;20037;-72
2024/03/16 10:04:48;;;;;;;19.70;8.88;;;;;;;14.52;90.24;101006.09;5045148;28;20045;-73
2024/03/16 10:07:14;;;;;;;14.40;7.07;;;;;;;14.63;90.53;101011.09;5048423;28;20036;-70
2024/03/16 10:09:53;;;;;;;16.50;8.23;;;;;;;14.60;86.10;101006.16;5047709;28;20456;-71
2024/03/16 10:12:20;;;;;;;15.82;6.60;;;;;;;14.57;88.23;101002.03;5047798;28;20093;-69
2024/03/16 10:15:03;;;;;;;16.35;7.00;;;;;;;14.71;88.13;101000.59;5048419;28;20040;-70
2024/03/16 10:17:31;;;;;;;18.45;6.85;;;;;;;14.90;89.90;101002.16;5045619;28;20111;-71
2024/03/16 10:19:57;;;;;;;13.55;6.25;;;;;;;14.92;89.69;100995.75;5047643;28;20093;-71
2024/03/16 10:22:22;;;;;;;15.63;6.70;;;;;;;15.01;90.02;100999.22;5046733;28;20568;-71
2024/03/16 10:24:49;;;;;;;14.10;7.10;;;;;;;15.13;90.57;100994.47;5046619;28;20068;-70
2024/03/16 10:27:16;;;;;;;13.45;6.22;;;;;;;15.16;90.14;100996.78;5048165;28;20070;-70
2024/03/16 10:29:41;;;;;;;12.00;5.72;;;;;;;15.00;89.66;100996.78;5048028;28;20029;-68
2024/03/16 10:32:07;;;;;;;16.40;7.10;;;;;;;15.07;89.87;100992.53;5044650;28;20381;-70
2024/03/16 10:34:34;;;;;;;13.05;6.57;;;;;;;15.08;89.55;100991.53;5048419;28;20044;-71
2024/03/16 10:37:03;;;;;;;16.85;6.72;;;;;;;15.04;90.11;100992.84;5046880;28;20060;-70
2024/03/16 10:39:31;;;;;;;12.82;6.72;;;;;;;15.02;89.56;100995.63;5049805;28;20067;-68
2024/03/16 10:41:57;;;;;;;18.55;6.68;;;;;;;14.94;90.22;100988.56;5045857;28;20362;-70
2024/03/16 10:44:24;;;;;;;11.38;6.97;;;;;;;14.88;90.40;100989.19;5047371;28;20040;-70
2024/03/16 10:46:50;;;;;;;15.00;7.15;;;;;;;14.86;90.83;100996.41;5048187;28;20028;-70
2024/03/16 10:49:15;;;;;;;11.52;5.90;;;;;;;14.99;89.59;100995.13;5046822;28;20037;-70
2024/03/16 10:51:44;;;;;;;12.80;5.47;;;;;;;15.10;89.92;100992.22;5048244;28;20029;-70
2024/03/16 10:54:11;;;;;;;17.75;5.68;;;;;;;15.17;89.95;100991.38;5046710;28;20036;-70
2024/03/16 10:56:39;;;;;;;14.10;6.50;;;;;;;15.21;88.27;100990.06;5046174;28;20397;-71
2024/03/16 10:59:07;;;;;;;14.65;7.55;;;;;;;15.24;88.48;100984.50;5047259;28;20025;-71
2024/03/16 11:01:33;;;;;;;11.30;6.32;;;;;;;15.09;87.84;100982.69;5048445;28;20047;-70
2024/03/16 11:04:01;;;;;;;12.75;6.13;;;;;;;15.23;88.16;100977.59;5047503;28;20500;-70
2024/03/16 11:06:26;;;;;;;14.50;6.40;;;;;;;15.35;88.56;100970.25;5047475;28;20056;-70
2024/03/16 11:08:52;;;;;;;12.48;5.85;;;;;;;15.44;88.72;100974.50;5047857;28;20037;-70
2024/03/16 11:11:32;;;;;;;8.57;5.22;;;;;;;15.45;87.63;100975.34;5045071;28;20482;-70
2024/03/16 11:14:08;;;;;;;14.05;5.65;;;;;;;15.25;88.46;100975.63;5046171;28;20040;-70
2024/03/16 11:16:35;;;;;;;17.05;6.68;;;;;;;15.25;88.60;100975.63;5044233;28;20041;-70
2024/03/16 11:19:07;;;;;;;15.90;6.65;;;;;;;15.32;88.53;100975.00;5047675;28;20040;-70